Terminal Aerodrome Forecast
Issued by NWS

Home | Current Version | Previous Version | Text Only | Print | Product List | Glossary On
Versions: 1 2 3 4 5 6 7 8 9 10 11 12 13 14 15 16 17 18 19 20 21 22 23 24 25 26 27 28 29 30 31 32 33
457
FTUS41 KOKX 230047 AAA
TAFGON
TAF AMD
KGON 230047Z 2301/2324 VRB03KT P6SM SCT035 BKN070
     FM230500 VRB03KT P6SM SCT025 OVC060
      TEMPO 2305/2309 SHRA BKN035
     FM231100 05009KT P6SM SCT025
     FM231600 10010KT P6SM BKN035=

USA.gov is the U.S. government's official web portal to all federal, state and local government web resources and services.